sensor_id;sensor_type;location;lat;lon;timestamp;temperature;humidity
59505;DHT22;45321;53.200;5.814;2023-05-29T00:00:07;13.00;64.20
59505;DHT22;45321;53.200;5.814;2023-05-29T00:02:34;12.90;64.40
59505;DHT22;45321;53.200;5.814;2023-05-29T00:05:00;12.90;63.90
59505;DHT22;45321;53.200;5.814;2023-05-29T00:07:29;12.90;64.10
59505;DHT22;45321;53.200;5.814;2023-05-29T00:09:56;12.90;64.10
59505;DHT22;45321;53.200;5.814;2023-05-29T00:12:21;12.90;64.40
59505;DHT22;45321;53.200;5.814;2023-05-29T00:14:48;12.90;64.60
59505;DHT22;45321;53.200;5.814;2023-05-29T00:17:14;12.80;64.70
59505;DHT22;45321;53.200;5.814;2023-05-29T00:19:42;12.80;64.50
59505;DHT22;45321;53.200;5.814;2023-05-29T00:22:08;12.80;65.00
59505;DHT22;45321;53.200;5.814;2023-05-29T00:24:33;12.80;64.90
59505;DHT22;45321;53.200;5.814;2023-05-29T00:26:59;12.80;64.80
59505;DHT22;45321;53.200;5.814;2023-05-29T00:29:26;12.80;64.70
59505;DHT22;45321;53.200;5.814;2023-05-29T00:31:53;12.80;65.20
59505;DHT22;45321;53.200;5.814;2023-05-29T00:34:19;12.80;64.80
59505;DHT22;45321;53.200;5.814;2023-05-29T00:36:45;12.70;65.00
59505;DHT22;45321;53.200;5.814;2023-05-29T00:39:12;12.70;65.20
59505;DHT22;45321;53.200;5.814;2023-05-29T00:41:38;12.70;65.20
59505;DHT22;45321;53.200;5.814;2023-05-29T00:44:03;12.60;65.40
59505;DHT22;45321;53.200;5.814;2023-05-29T00:46:30;12.60;65.20
59505;DHT22;45321;53.200;5.814;2023-05-29T00:48:58;12.60;65.80
59505;DHT22;45321;53.200;5.814;2023-05-29T00:51:25;12.50;65.40
59505;DHT22;45321;53.200;5.814;2023-05-29T00:53:52;12.50;65.50
59505;DHT22;45321;53.200;5.814;2023-05-29T00:56:19;12.50;65.60
59505;DHT22;45321;53.200;5.814;2023-05-29T00:58:50;12.50;65.20
59505;DHT22;45321;53.200;5.814;2023-05-29T01:01:18;12.40;65.10
59505;DHT22;45321;53.200;5.814;2023-05-29T01:03:44;12.40;65.60
59505;DHT22;45321;53.200;5.814;2023-05-29T01:06:11;12.40;65.70
59505;DHT22;45321;53.200;5.814;2023-05-29T01:08:36;12.40;65.60
59505;DHT22;45321;53.200;5.814;2023-05-29T01:11:12;12.40;65.60
59505;DHT22;45321;53.200;5.814;2023-05-29T01:13:44;12.40;66.00
59505;DHT22;45321;53.200;5.814;2023-05-29T01:16:31;12.30;65.90
59505;DHT22;45321;53.200;5.814;2023-05-29T01:19:10;12.30;65.90
59505;DHT22;45321;53.200;5.814;2023-05-29T01:22:35;12.30;66.30
59505;DHT22;45321;53.200;5.814;2023-05-29T01:24:58;12.30;66.30
59505;DHT22;45321;53.200;5.814;2023-05-29T01:27:30;12.30;66.10
59505;DHT22;45321;53.200;5.814;2023-05-29T01:29:58;12.30;66.10
59505;DHT22;45321;53.200;5.814;2023-05-29T01:32:24;12.30;66.20
59505;DHT22;45321;53.200;5.814;2023-05-29T01:34:51;12.40;66.00
59505;DHT22;45321;53.200;5.814;2023-05-29T01:37:17;12.40;66.00
59505;DHT22;45321;53.200;5.814;2023-05-29T01:39:43;12.30;66.10
59505;DHT22;45321;53.200;5.814;2023-05-29T01:42:09;12.30;65.70
59505;DHT22;45321;53.200;5.814;2023-05-29T01:44:35;12.40;65.80
59505;DHT22;45321;53.200;5.814;2023-05-29T01:47:03;12.30;65.80
59505;DHT22;45321;53.200;5.814;2023-05-29T01:49:29;12.30;66.10
59505;DHT22;45321;53.200;5.814;2023-05-29T01:51:57;12.30;66.30
59505;DHT22;45321;53.200;5.814;2023-05-29T01:54:23;12.30;66.40
59505;DHT22;45321;53.200;5.814;2023-05-29T01:56:49;12.30;66.60
59505;DHT22;45321;53.200;5.814;2023-05-29T01:59:15;12.40;66.70
59505;DHT22;45321;53.200;5.814;2023-05-29T02:01:41;12.30;66.60
59505;DHT22;45321;53.200;5.814;2023-05-29T02:04:07;12.30;66.80
59505;DHT22;45321;53.200;5.814;2023-05-29T02:06:33;12.40;66.50
59505;DHT22;45321;53.200;5.814;2023-05-29T02:08:59;12.40;66.30
59505;DHT22;45321;53.200;5.814;2023-05-29T02:11:25;12.40;66.40
59505;DHT22;45321;53.200;5.814;2023-05-29T02:13:51;12.40;66.40
59505;DHT22;45321;53.200;5.814;2023-05-29T02:16:18;12.30;66.80
59505;DHT22;45321;53.200;5.814;2023-05-29T02:18:48;12.30;66.50
59505;DHT22;45321;53.200;5.814;2023-05-29T02:21:14;12.30;66.40
59505;DHT22;45321;53.200;5.814;2023-05-29T02:23:40;12.30;66.50
59505;DHT22;45321;53.200;5.814;2023-05-29T02:26:06;12.30;66.30
59505;DHT22;45321;53.200;5.814;2023-05-29T02:28:32;12.30;66.00
59505;DHT22;45321;53.200;5.814;2023-05-29T02:30:57;12.30;65.60
59505;DHT22;45321;53.200;5.814;2023-05-29T02:33:23;12.40;65.20
59505;DHT22;45321;53.200;5.814;2023-05-29T02:35:49;12.40;65.00
59505;DHT22;45321;53.200;5.814;2023-05-29T02:38:15;12.40;64.80
59505;DHT22;45321;53.200;5.814;2023-05-29T02:40:40;12.40;64.70
59505;DHT22;45321;53.200;5.814;2023-05-29T02:43:07;12.50;64.50
59505;DHT22;45321;53.200;5.814;2023-05-29T02:45:33;12.50;64.50
59505;DHT22;45321;53.200;5.814;2023-05-29T02:47:59;12.50;64.60
59505;DHT22;45321;53.200;5.814;2023-05-29T02:50:25;12.50;64.70
59505;DHT22;45321;53.200;5.814;2023-05-29T02:52:50;12.50;64.40
59505;DHT22;45321;53.200;5.814;2023-05-29T02:55:16;12.50;64.60
59505;DHT22;45321;53.200;5.814;2023-05-29T02:57:42;12.50;64.80
59505;DHT22;45321;53.200;5.814;2023-05-29T03:00:08;12.40;64.70
59505;DHT22;45321;53.200;5.814;2023-05-29T03:02:34;12.40;64.90
59505;DHT22;45321;53.200;5.814;2023-05-29T03:05:03;12.50;65.10
59505;DHT22;45321;53.200;5.814;2023-05-29T03:07:28;12.50;64.90
59505;DHT22;45321;53.200;5.814;2023-05-29T03:09:54;12.50;64.80
59505;DHT22;45321;53.200;5.814;2023-05-29T03:12:21;12.60;64.90
59505;DHT22;45321;53.200;5.814;2023-05-29T03:14:46;12.60;64.80
59505;DHT22;45321;53.200;5.814;2023-05-29T03:17:12;12.60;64.90
59505;DHT22;45321;53.200;5.814;2023-05-29T03:19:38;12.60;64.60
59505;DHT22;45321;53.200;5.814;2023-05-29T03:22:04;12.60;65.00
59505;DHT22;45321;53.200;5.814;2023-05-29T03:24:30;12.60;65.00
59505;DHT22;45321;53.200;5.814;2023-05-29T03:26:56;12.60;65.10
59505;DHT22;45321;53.200;5.814;2023-05-29T03:29:22;12.70;65.20
59505;DHT22;45321;53.200;5.814;2023-05-29T03:31:48;12.70;65.20
59505;DHT22;45321;53.200;5.814;2023-05-29T03:34:14;12.70;65.10
59505;DHT22;45321;53.200;5.814;2023-05-29T03:36:39;12.70;65.70
59505;DHT22;45321;53.200;5.814;2023-05-29T03:39:05;12.70;65.60
59505;DHT22;45321;53.200;5.814;2023-05-29T03:41:31;12.70;65.30
59505;DHT22;45321;53.200;5.814;2023-05-29T03:43:57;12.70;65.50
59505;DHT22;45321;53.200;5.814;2023-05-29T03:46:23;12.80;66.10
59505;DHT22;45321;53.200;5.814;2023-05-29T03:48:49;12.70;65.40
59505;DHT22;45321;53.200;5.814;2023-05-29T03:51:14;12.80;65.30
59505;DHT22;45321;53.200;5.814;2023-05-29T03:53:40;12.80;65.30
59505;DHT22;45321;53.200;5.814;2023-05-29T03:56:06;12.80;65.00
59505;DHT22;45321;53.200;5.814;2023-05-29T03:58:32;12.80;64.70
59505;DHT22;45321;53.200;5.814;2023-05-29T04:00:58;12.80;64.40
59505;DHT22;45321;53.200;5.814;2023-05-29T04:03:24;12.80;64.40
59505;DHT22;45321;53.200;5.814;2023-05-29T04:05:49;12.80;64.50
59505;DHT22;45321;53.200;5.814;2023-05-29T04:08:15;12.80;64.30
59505;DHT22;45321;53.200;5.814;2023-05-29T04:10:41;12.80;64.40
59505;DHT22;45321;53.200;5.814;2023-05-29T04:13:07;12.80;64.30
59505;DHT22;45321;53.200;5.814;2023-05-29T04:15:32;12.80;63.90
59505;DHT22;45321;53.200;5.814;2023-05-29T04:17:59;12.80;64.10
59505;DHT22;45321;53.200;5.814;2023-05-29T04:20:25;12.80;63.60
59505;DHT22;45321;53.200;5.814;2023-05-29T04:22:51;12.80;63.60
59505;DHT22;45321;53.200;5.814;2023-05-29T04:25:17;12.80;63.90
59505;DHT22;45321;53.200;5.814;2023-05-29T04:27:44;12.80;63.70
59505;DHT22;45321;53.200;5.814;2023-05-29T04:30:14;12.80;64.00
59505;DHT22;45321;53.200;5.814;2023-05-29T04:32:40;12.80;64.00
59505;DHT22;45321;53.200;5.814;2023-05-29T04:35:06;12.80;64.10
59505;DHT22;45321;53.200;5.814;2023-05-29T04:37:32;12.80;63.90
59505;DHT22;45321;53.200;5.814;2023-05-29T04:40:07;12.80;64.40
59505;DHT22;45321;53.200;5.814;2023-05-29T04:42:38;12.80;64.20
59505;DHT22;45321;53.200;5.814;2023-05-29T04:45:06;12.80;63.70
59505;DHT22;45321;53.200;5.814;2023-05-29T04:47:32;12.80;63.30
59505;DHT22;45321;53.200;5.814;2023-05-29T04:50:01;12.80;63.40
59505;DHT22;45321;53.200;5.814;2023-05-29T04:52:29;12.80;62.90
59505;DHT22;45321;53.200;5.814;2023-05-29T04:54:56;12.80;62.70
59505;DHT22;45321;53.200;5.814;2023-05-29T04:57:22;12.80;62.80
59505;DHT22;45321;53.200;5.814;2023-05-29T04:59:47;12.90;62.50
59505;DHT22;45321;53.200;5.814;2023-05-29T05:02:13;12.90;62.60
59505;DHT22;45321;53.200;5.814;2023-05-29T05:04:39;12.80;63.00
59505;DHT22;45321;53.200;5.814;2023-05-29T05:07:05;12.80;63.20
59505;DHT22;45321;53.200;5.814;2023-05-29T05:09:31;12.80;63.30
59505;DHT22;45321;53.200;5.814;2023-05-29T05:11:57;12.90;63.60
59505;DHT22;45321;53.200;5.814;2023-05-29T05:14:23;12.90;63.50
59505;DHT22;45321;53.200;5.814;2023-05-29T05:16:49;12.90;63.80
59505;DHT22;45321;53.200;5.814;2023-05-29T05:19:15;12.90;63.80
59505;DHT22;45321;53.200;5.814;2023-05-29T05:21:40;12.90;63.80
59505;DHT22;45321;53.200;5.814;2023-05-29T05:24:06;12.90;63.70
59505;DHT22;45321;53.200;5.814;2023-05-29T05:26:32;12.90;63.80
59505;DHT22;45321;53.200;5.814;2023-05-29T05:28:57;13.00;63.60
59505;DHT22;45321;53.200;5.814;2023-05-29T05:31:24;13.00;63.50
59505;DHT22;45321;53.200;5.814;2023-05-29T05:33:49;13.00;63.20
59505;DHT22;45321;53.200;5.814;2023-05-29T05:36:15;13.00;63.50
59505;DHT22;45321;53.200;5.814;2023-05-29T05:38:41;13.00;63.30
59505;DHT22;45321;53.200;5.814;2023-05-29T05:41:07;13.00;63.30
59505;DHT22;45321;53.200;5.814;2023-05-29T05:43:33;13.10;63.30
59505;DHT22;45321;53.200;5.814;2023-05-29T05:45:58;13.10;63.20
59505;DHT22;45321;53.200;5.814;2023-05-29T05:48:24;13.10;62.90
59505;DHT22;45321;53.200;5.814;2023-05-29T05:50:50;13.20;63.20
59505;DHT22;45321;53.200;5.814;2023-05-29T05:53:16;13.20;63.20
59505;DHT22;45321;53.200;5.814;2023-05-29T05:55:43;13.30;63.20
59505;DHT22;45321;53.200;5.814;2023-05-29T05:58:08;13.30;63.50
59505;DHT22;45321;53.200;5.814;2023-05-29T06:00:34;13.30;63.20
59505;DHT22;45321;53.200;5.814;2023-05-29T06:03:01;13.40;63.20
59505;DHT22;45321;53.200;5.814;2023-05-29T06:05:29;13.40;63.30
59505;DHT22;45321;53.200;5.814;2023-05-29T06:07:55;13.40;63.00
59505;DHT22;45321;53.200;5.814;2023-05-29T06:10:21;13.40;62.40
59505;DHT22;45321;53.200;5.814;2023-05-29T06:12:47;13.50;62.10
59505;DHT22;45321;53.200;5.814;2023-05-29T06:15:12;13.50;62.10
59505;DHT22;45321;53.200;5.814;2023-05-29T06:17:39;13.50;61.80
59505;DHT22;45321;53.200;5.814;2023-05-29T06:20:05;13.60;61.70
59505;DHT22;45321;53.200;5.814;2023-05-29T06:22:40;13.60;61.40
59505;DHT22;45321;53.200;5.814;2023-05-29T06:25:06;13.70;61.70
59505;DHT22;45321;53.200;5.814;2023-05-29T06:27:32;13.70;61.60
59505;DHT22;45321;53.200;5.814;2023-05-29T06:30:01;13.70;61.70
59505;DHT22;45321;53.200;5.814;2023-05-29T06:32:26;13.80;61.70
59505;DHT22;45321;53.200;5.814;2023-05-29T06:34:53;13.80;61.50
59505;DHT22;45321;53.200;5.814;2023-05-29T06:37:19;13.80;61.60
59505;DHT22;45321;53.200;5.814;2023-05-29T06:39:45;13.90;61.20
59505;DHT22;45321;53.200;5.814;2023-05-29T06:42:11;14.00;60.50
59505;DHT22;45321;53.200;5.814;2023-05-29T06:44:37;14.00;60.50
59505;DHT22;45321;53.200;5.814;2023-05-29T06:47:03;14.00;60.80
59505;DHT22;45321;53.200;5.814;2023-05-29T06:49:29;14.10;60.00
59505;DHT22;45321;53.200;5.814;2023-05-29T06:51:55;14.20;60.00
59505;DHT22;45321;53.200;5.814;2023-05-29T06:54:20;14.30;60.00
59505;DHT22;45321;53.200;5.814;2023-05-29T06:56:46;14.30;59.70
59505;DHT22;45321;53.200;5.814;2023-05-29T06:59:12;14.30;60.00
59505;DHT22;45321;53.200;5.814;2023-05-29T07:01:37;14.40;59.60
59505;DHT22;45321;53.200;5.814;2023-05-29T07:04:03;14.40;59.40
59505;DHT22;45321;53.200;5.814;2023-05-29T07:06:29;14.40;59.20
59505;DHT22;45321;53.200;5.814;2023-05-29T07:08:55;14.50;59.70
59505;DHT22;45321;53.200;5.814;2023-05-29T07:11:21;14.50;59.60
59505;DHT22;45321;53.200;5.814;2023-05-29T07:13:47;14.50;59.20
59505;DHT22;45321;53.200;5.814;2023-05-29T07:16:12;14.60;59.30
59505;DHT22;45321;53.200;5.814;2023-05-29T07:18:38;14.70;59.60
59505;DHT22;45321;53.200;5.814;2023-05-29T07:21:04;14.70;59.40
59505;DHT22;45321;53.200;5.814;2023-05-29T07:23:30;14.70;58.90
59505;DHT22;45321;53.200;5.814;2023-05-29T07:25:55;14.70;58.60
59505;DHT22;45321;53.200;5.814;2023-05-29T07:28:21;14.70;59.00
59505;DHT22;45321;53.200;5.814;2023-05-29T07:30:49;14.70;58.80
59505;DHT22;45321;53.200;5.814;2023-05-29T07:33:15;14.80;58.90
59505;DHT22;45321;53.200;5.814;2023-05-29T07:35:41;14.90;58.70
59505;DHT22;45321;53.200;5.814;2023-05-29T07:38:10;14.90;58.60
59505;DHT22;45321;53.200;5.814;2023-05-29T07:40:36;15.00;58.30
59505;DHT22;45321;53.200;5.814;2023-05-29T07:43:02;15.00;57.80
59505;DHT22;45321;53.200;5.814;2023-05-29T07:45:27;15.00;58.00
59505;DHT22;45321;53.200;5.814;2023-05-29T07:47:56;14.90;58.00
59505;DHT22;45321;53.200;5.814;2023-05-29T07:50:22;15.00;58.10
59505;DHT22;45321;53.200;5.814;2023-05-29T07:52:48;15.00;58.00
59505;DHT22;45321;53.200;5.814;2023-05-29T07:55:14;15.10;57.80
59505;DHT22;45321;53.200;5.814;2023-05-29T07:57:42;15.20;57.80
59505;DHT22;45321;53.200;5.814;2023-05-29T08:00:09;15.30;57.80
59505;DHT22;45321;53.200;5.814;2023-05-29T08:02:45;15.40;58.00
59505;DHT22;45321;53.200;5.814;2023-05-29T08:05:11;15.50;57.90
59505;DHT22;45321;53.200;5.814;2023-05-29T08:07:38;15.60;57.60
59505;DHT22;45321;53.200;5.814;2023-05-29T08:10:04;15.70;56.50
59505;DHT22;45321;53.200;5.814;2023-05-29T08:12:31;15.60;56.50
59505;DHT22;45321;53.200;5.814;2023-05-29T08:14:57;15.70;56.60
59505;DHT22;45321;53.200;5.814;2023-05-29T08:17:23;15.80;56.70
59505;DHT22;45321;53.200;5.814;2023-05-29T08:19:48;15.80;56.40
59505;DHT22;45321;53.200;5.814;2023-05-29T08:22:14;15.90;55.60
59505;DHT22;45321;53.200;5.814;2023-05-29T08:24:40;16.00;55.90
59505;DHT22;45321;53.200;5.814;2023-05-29T08:27:06;16.00;55.60
59505;DHT22;45321;53.200;5.814;2023-05-29T08:29:32;16.10;55.40
59505;DHT22;45321;53.200;5.814;2023-05-29T08:31:58;16.20;55.50
59505;DHT22;45321;53.200;5.814;2023-05-29T08:34:23;16.30;55.60
59505;DHT22;45321;53.200;5.814;2023-05-29T08:36:49;16.40;55.70
59505;DHT22;45321;53.200;5.814;2023-05-29T08:39:17;16.50;54.70
59505;DHT22;45321;53.200;5.814;2023-05-29T08:42:04;16.60;54.50
59505;DHT22;45321;53.200;5.814;2023-05-29T08:44:33;16.70;54.40
59505;DHT22;45321;53.200;5.814;2023-05-29T08:47:05;16.70;54.20
59505;DHT22;45321;53.200;5.814;2023-05-29T08:49:42;16.80;54.40
59505;DHT22;45321;53.200;5.814;2023-05-29T08:52:16;16.80;54.30
59505;DHT22;45321;53.200;5.814;2023-05-29T08:54:42;16.80;54.40
59505;DHT22;45321;53.200;5.814;2023-05-29T08:57:12;16.70;54.70
59505;DHT22;45321;53.200;5.814;2023-05-29T08:59:41;16.70;54.60
59505;DHT22;45321;53.200;5.814;2023-05-29T09:02:07;16.70;54.40
59505;DHT22;45321;53.200;5.814;2023-05-29T09:04:33;16.60;54.80
59505;DHT22;45321;53.200;5.814;2023-05-29T09:06:59;16.50;54.60
59505;DHT22;45321;53.200;5.814;2023-05-29T09:09:29;16.50;54.60
59505;DHT22;45321;53.200;5.814;2023-05-29T09:11:57;16.40;55.20
59505;DHT22;45321;53.200;5.814;2023-05-29T09:14:41;16.40;55.80
59505;DHT22;45321;53.200;5.814;2023-05-29T09:17:09;16.30;55.70
59505;DHT22;45321;53.200;5.814;2023-05-29T09:19:35;16.30;55.70
59505;DHT22;45321;53.200;5.814;2023-05-29T09:22:10;16.20;55.70
59505;DHT22;45321;53.200;5.814;2023-05-29T09:24:37;16.20;56.10
59505;DHT22;45321;53.200;5.814;2023-05-29T09:27:06;16.20;55.70
59505;DHT22;45321;53.200;5.814;2023-05-29T09:29:41;16.20;55.70
59505;DHT22;45321;53.200;5.814;2023-05-29T09:32:17;16.20;55.30
59505;DHT22;45321;53.200;5.814;2023-05-29T09:34:43;16.20;55.10
59505;DHT22;45321;53.200;5.814;2023-05-29T09:37:10;16.20;54.70
59505;DHT22;45321;53.200;5.814;2023-05-29T09:39:50;16.30;55.30
59505;DHT22;45321;53.200;5.814;2023-05-29T09:42:17;16.40;55.40
59505;DHT22;45321;53.200;5.814;2023-05-29T09:44:53;16.50;55.30
59505;DHT22;45321;53.200;5.814;2023-05-29T09:47:20;16.50;55.90
59505;DHT22;45321;53.200;5.814;2023-05-29T09:49:46;16.60;55.40
59505;DHT22;45321;53.200;5.814;2023-05-29T09:52:13;16.70;55.20
59505;DHT22;45321;53.200;5.814;2023-05-29T09:54:45;16.70;54.90
59505;DHT22;45321;53.200;5.814;2023-05-29T09:57:12;16.80;54.50
59505;DHT22;45321;53.200;5.814;2023-05-29T09:59:41;16.80;54.00
59505;DHT22;45321;53.200;5.814;2023-05-29T10:02:14;16.80;54.40
59505;DHT22;45321;53.200;5.814;2023-05-29T10:04:41;16.90;55.20
59505;DHT22;45321;53.200;5.814;2023-05-29T10:07:15;17.00;54.30
59505;DHT22;45321;53.200;5.814;2023-05-29T10:09:44;17.10;54.10
59505;DHT22;45321;53.200;5.814;2023-05-29T10:12:13;17.10;54.00
59505;DHT22;45321;53.200;5.814;2023-05-29T10:14:43;17.30;54.60
59505;DHT22;45321;53.200;5.814;2023-05-29T10:17:12;17.40;54.50
59505;DHT22;45321;53.200;5.814;2023-05-29T10:19:39;17.50;53.40
59505;DHT22;45321;53.200;5.814;2023-05-29T10:22:09;17.60;53.50
59505;DHT22;45321;53.200;5.814;2023-05-29T10:24:37;17.70;53.50
59505;DHT22;45321;53.200;5.814;2023-05-29T10:27:04;17.80;52.70
59505;DHT22;45321;53.200;5.814;2023-05-29T10:29:54;17.80;52.50
59505;DHT22;45321;53.200;5.814;2023-05-29T10:32:43;18.00;53.20
59505;DHT22;45321;53.200;5.814;2023-05-29T10:35:22;18.20;52.20
59505;DHT22;45321;53.200;5.814;2023-05-29T10:37:54;18.20;51.90
59505;DHT22;45321;53.200;5.814;2023-05-29T10:40:26;18.20;51.10
59505;DHT22;45321;53.200;5.814;2023-05-29T10:42:53;18.30;51.30
59505;DHT22;45321;53.200;5.814;2023-05-29T10:50:49;18.70;51.40
59505;DHT22;45321;53.200;5.814;2023-05-29T10:53:26;18.90;50.70
59505;DHT22;45321;53.200;5.814;2023-05-29T10:55:53;19.00;50.10
59505;DHT22;45321;53.200;5.814;2023-05-29T10:58:24;19.20;50.50
59505;DHT22;45321;53.200;5.814;2023-05-29T11:00:51;19.20;50.10
59505;DHT22;45321;53.200;5.814;2023-05-29T11:03:34;19.30;48.90
59505;DHT22;45321;53.200;5.814;2023-05-29T11:08:53;19.40;48.90
59505;DHT22;45321;53.200;5.814;2023-05-29T11:11:30;19.50;47.00
59505;DHT22;45321;53.200;5.814;2023-05-29T11:14:02;19.60;47.90
59505;DHT22;45321;53.200;5.814;2023-05-29T11:18:59;19.50;47.70
59505;DHT22;45321;53.200;5.814;2023-05-29T11:24:07;19.50;48.50
59505;DHT22;45321;53.200;5.814;2023-05-29T11:26:35;19.60;48.40
59505;DHT22;45321;53.200;5.814;2023-05-29T11:29:05;19.60;49.30
59505;DHT22;45321;53.200;5.814;2023-05-29T11:31:33;19.70;48.00
59505;DHT22;45321;53.200;5.814;2023-05-29T11:34:01;20.00;48.50
59505;DHT22;45321;53.200;5.814;2023-05-29T11:36:31;20.20;47.40
59505;DHT22;45321;53.200;5.814;2023-05-29T11:38:58;20.40;46.80
59505;DHT22;45321;53.200;5.814;2023-05-29T11:41:24;20.60;46.40
59505;DHT22;45321;53.200;5.814;2023-05-29T11:44:01;20.80;45.70
59505;DHT22;45321;53.200;5.814;2023-05-29T11:46:28;21.10;45.40
59505;DHT22;45321;53.200;5.814;2023-05-29T11:48:56;21.30;45.30
59505;DHT22;45321;53.200;5.814;2023-05-29T11:51:22;21.30;44.50
59505;DHT22;45321;53.200;5.814;2023-05-29T11:53:49;21.30;45.20
59505;DHT22;45321;53.200;5.814;2023-05-29T11:56:18;21.40;45.00
59505;DHT22;45321;53.200;5.814;2023-05-29T11:58:45;21.50;43.90
59505;DHT22;45321;53.200;5.814;2023-05-29T12:01:11;21.50;43.10
59505;DHT22;45321;53.200;5.814;2023-05-29T12:03:43;21.50;43.30
59505;DHT22;45321;53.200;5.814;2023-05-29T12:06:12;21.40;43.50
59505;DHT22;45321;53.200;5.814;2023-05-29T12:08:38;21.50;43.00
59505;DHT22;45321;53.200;5.814;2023-05-29T12:11:04;21.40;43.10
59505;DHT22;45321;53.200;5.814;2023-05-29T12:13:31;21.30;42.60
59505;DHT22;45321;53.200;5.814;2023-05-29T12:15:59;21.20;42.10
59505;DHT22;45321;53.200;5.814;2023-05-29T12:18:26;21.20;43.70
59505;DHT22;45321;53.200;5.814;2023-05-29T12:21:02;21.20;43.90
59505;DHT22;45321;53.200;5.814;2023-05-29T12:23:29;21.20;44.20
59505;DHT22;45321;53.200;5.814;2023-05-29T12:25:56;21.20;44.10
59505;DHT22;45321;53.200;5.814;2023-05-29T12:28:22;21.20;43.30
59505;DHT22;45321;53.200;5.814;2023-05-29T12:30:49;21.20;42.80
59505;DHT22;45321;53.200;5.814;2023-05-29T12:33:44;21.40;42.20
59505;DHT22;45321;53.200;5.814;2023-05-29T12:36:12;21.40;41.80
59505;DHT22;45321;53.200;5.814;2023-05-29T12:38:49;21.50;42.60
59505;DHT22;45321;53.200;5.814;2023-05-29T12:41:28;21.50;42.10
59505;DHT22;45321;53.200;5.814;2023-05-29T12:43:58;21.30;42.00
59505;DHT22;45321;53.200;5.814;2023-05-29T12:46:26;21.30;42.30
59505;DHT22;45321;53.200;5.814;2023-05-29T12:48:56;21.20;42.40
59505;DHT22;45321;53.200;5.814;2023-05-29T12:51:28;21.00;42.70
59505;DHT22;45321;53.200;5.814;2023-05-29T12:53:54;21.00;43.60
59505;DHT22;45321;53.200;5.814;2023-05-29T12:56:22;20.90;42.80
59505;DHT22;45321;53.200;5.814;2023-05-29T12:58:52;20.80;44.00
59505;DHT22;45321;53.200;5.814;2023-05-29T13:01:18;20.80;43.80
59505;DHT22;45321;53.200;5.814;2023-05-29T13:03:44;20.80;43.30
59505;DHT22;45321;53.200;5.814;2023-05-29T13:06:10;20.80;43.90
59505;DHT22;45321;53.200;5.814;2023-05-29T13:08:36;20.70;44.10
59505;DHT22;45321;53.200;5.814;2023-05-29T13:11:02;20.70;44.00
59505;DHT22;45321;53.200;5.814;2023-05-29T13:13:28;20.70;43.90
59505;DHT22;45321;53.200;5.814;2023-05-29T13:15:54;20.90;44.10
59505;DHT22;45321;53.200;5.814;2023-05-29T13:18:20;21.20;43.80
59505;DHT22;45321;53.200;5.814;2023-05-29T13:20:45;21.30;42.90
59505;DHT22;45321;53.200;5.814;2023-05-29T13:23:14;21.40;43.00
59505;DHT22;45321;53.200;5.814;2023-05-29T13:25:40;21.50;42.60
59505;DHT22;45321;53.200;5.814;2023-05-29T13:28:09;21.70;43.20
59505;DHT22;45321;53.200;5.814;2023-05-29T13:30:35;21.90;42.50
59505;DHT22;45321;53.200;5.814;2023-05-29T13:33:01;22.10;41.60
59505;DHT22;45321;53.200;5.814;2023-05-29T13:35:28;22.20;41.90
59505;DHT22;45321;53.200;5.814;2023-05-29T13:37:54;22.30;41.20
59505;DHT22;45321;53.200;5.814;2023-05-29T13:40:19;22.50;41.70
59505;DHT22;45321;53.200;5.814;2023-05-29T13:42:45;22.50;40.90
59505;DHT22;45321;53.200;5.814;2023-05-29T13:45:11;22.70;41.10
59505;DHT22;45321;53.200;5.814;2023-05-29T13:47:37;22.80;40.90
59505;DHT22;45321;53.200;5.814;2023-05-29T13:50:03;23.00;40.20
59505;DHT22;45321;53.200;5.814;2023-05-29T13:52:29;23.20;39.70
59505;DHT22;45321;53.200;5.814;2023-05-29T13:54:55;23.30;39.80
59505;DHT22;45321;53.200;5.814;2023-05-29T13:57:23;23.40;38.00
59505;DHT22;45321;53.200;5.814;2023-05-29T13:59:49;23.50;38.10
59505;DHT22;45321;53.200;5.814;2023-05-29T14:02:15;23.60;38.00
59505;DHT22;45321;53.200;5.814;2023-05-29T14:04:41;23.80;37.80
59505;DHT22;45321;53.200;5.814;2023-05-29T14:07:08;24.00;36.90
59505;DHT22;45321;53.200;5.814;2023-05-29T14:09:34;24.20;37.70
59505;DHT22;45321;53.200;5.814;2023-05-29T14:12:00;24.50;36.80
59505;DHT22;45321;53.200;5.814;2023-05-29T14:14:27;24.70;37.10
59505;DHT22;45321;53.200;5.814;2023-05-29T14:16:53;25.00;35.30
59505;DHT22;45321;53.200;5.814;2023-05-29T14:19:21;25.10;34.90
59505;DHT22;45321;53.200;5.814;2023-05-29T14:21:46;25.20;34.40
59505;DHT22;45321;53.200;5.814;2023-05-29T14:24:12;25.30;34.20
59505;DHT22;45321;53.200;5.814;2023-05-29T14:26:39;25.50;35.00
59505;DHT22;45321;53.200;5.814;2023-05-29T14:29:05;25.50;33.90
59505;DHT22;45321;53.200;5.814;2023-05-29T14:31:31;25.50;34.90
59505;DHT22;45321;53.200;5.814;2023-05-29T14:33:57;25.60;32.90
59505;DHT22;45321;53.200;5.814;2023-05-29T14:36:23;25.60;33.70
59505;DHT22;45321;53.200;5.814;2023-05-29T14:38:49;25.70;33.40
59505;DHT22;45321;53.200;5.814;2023-05-29T14:41:15;25.70;33.30
59505;DHT22;45321;53.200;5.814;2023-05-29T14:43:42;25.60;33.00
59505;DHT22;45321;53.200;5.814;2023-05-29T14:46:10;25.40;33.60
59505;DHT22;45321;53.200;5.814;2023-05-29T14:48:37;25.50;33.10
59505;DHT22;45321;53.200;5.814;2023-05-29T14:51:03;25.70;33.90
59505;DHT22;45321;53.200;5.814;2023-05-29T14:53:28;26.00;34.20
59505;DHT22;45321;53.200;5.814;2023-05-29T14:55:56;26.20;34.00
59505;DHT22;45321;53.200;5.814;2023-05-29T14:58:22;26.50;33.80
59505;DHT22;45321;53.200;5.814;2023-05-29T15:00:48;26.60;33.50
59505;DHT22;45321;53.200;5.814;2023-05-29T15:03:14;26.80;33.20
59505;DHT22;45321;53.200;5.814;2023-05-29T15:05:40;26.90;33.10
59505;DHT22;45321;53.200;5.814;2023-05-29T15:08:06;27.00;32.90
59505;DHT22;45321;53.200;5.814;2023-05-29T15:10:35;27.00;33.20
59505;DHT22;45321;53.200;5.814;2023-05-29T15:13:01;26.90;33.60
59505;DHT22;45321;53.200;5.814;2023-05-29T15:15:29;26.90;33.10
59505;DHT22;45321;53.200;5.814;2023-05-29T15:17:55;26.80;32.30
59505;DHT22;45321;53.200;5.814;2023-05-29T15:20:25;26.20;33.30
59505;DHT22;45321;53.200;5.814;2023-05-29T15:22:52;25.50;33.90
59505;DHT22;45321;53.200;5.814;2023-05-29T15:25:19;24.80;34.50
59505;DHT22;45321;53.200;5.814;2023-05-29T15:27:45;24.40;35.00
59505;DHT22;45321;53.200;5.814;2023-05-29T15:30:12;24.00;35.50
59505;DHT22;45321;53.200;5.814;2023-05-29T15:32:39;23.60;35.60
59505;DHT22;45321;53.200;5.814;2023-05-29T15:35:07;23.20;36.30
59505;DHT22;45321;53.200;5.814;2023-05-29T15:37:33;23.00;37.20
59505;DHT22;45321;53.200;5.814;2023-05-29T15:40:00;22.90;37.70
59505;DHT22;45321;53.200;5.814;2023-05-29T15:42:26;22.80;37.80
59505;DHT22;45321;53.200;5.814;2023-05-29T15:44:52;22.70;37.80